sensor_id;sensor_type;location;lat;lon;timestamp;temperature;humidity
15483;DHT22;7843;50.330;7.312;2023-05-31T00:01:16;13.50;92.50
15483;DHT22;7843;50.330;7.312;2023-05-31T00:03:43;13.50;92.90
15483;DHT22;7843;50.330;7.312;2023-05-31T00:06:10;13.60;92.90
15483;DHT22;7843;50.330;7.312;2023-05-31T00:08:38;13.70;92.10
15483;DHT22;7843;50.330;7.312;2023-05-31T00:11:07;13.80;91.60
15483;DHT22;7843;50.330;7.312;2023-05-31T00:13:33;13.90;91.00
15483;DHT22;7843;50.330;7.312;2023-05-31T00:16:00;13.90;91.70
15483;DHT22;7843;50.330;7.312;2023-05-31T00:18:27;13.80;91.60
15483;DHT22;7843;50.330;7.312;2023-05-31T00:20:54;13.70;91.80
15483;DHT22;7843;50.330;7.312;2023-05-31T00:23:21;13.80;91.70
15483;DHT22;7843;50.330;7.312;2023-05-31T00:25:47;13.90;91.30
15483;DHT22;7843;50.330;7.312;2023-05-31T00:28:14;13.90;91.10
15483;DHT22;7843;50.330;7.312;2023-05-31T00:30:41;13.90;91.30
15483;DHT22;7843;50.330;7.312;2023-05-31T00:33:07;13.80;91.80
15483;DHT22;7843;50.330;7.312;2023-05-31T00:35:34;13.70;92.00
15483;DHT22;7843;50.330;7.312;2023-05-31T00:38:04;13.60;92.50
15483;DHT22;7843;50.330;7.312;2023-05-31T00:40:32;13.40;92.50
15483;DHT22;7843;50.330;7.312;2023-05-31T00:42:59;13.30;93.00
15483;DHT22;7843;50.330;7.312;2023-05-31T00:45:26;13.20;93.40
15483;DHT22;7843;50.330;7.312;2023-05-31T00:47:52;13.20;93.80
15483;DHT22;7843;50.330;7.312;2023-05-31T00:50:19;13.10;94.20
15483;DHT22;7843;50.330;7.312;2023-05-31T00:52:48;13.10;94.30
15483;DHT22;7843;50.330;7.312;2023-05-31T00:55:16;13.10;94.10
15483;DHT22;7843;50.330;7.312;2023-05-31T00:57:43;13.00;94.20
15483;DHT22;7843;50.330;7.312;2023-05-31T01:00:10;13.00;94.60
15483;DHT22;7843;50.330;7.312;2023-05-31T01:02:38;13.00;94.60
15483;DHT22;7843;50.330;7.312;2023-05-31T01:05:06;13.10;94.70
15483;DHT22;7843;50.330;7.312;2023-05-31T01:07:32;13.10;94.40
15483;DHT22;7843;50.330;7.312;2023-05-31T01:10:00;13.10;94.10
15483;DHT22;7843;50.330;7.312;2023-05-31T01:15:22;12.80;95.10
15483;DHT22;7843;50.330;7.312;2023-05-31T01:17:59;12.80;95.20
15483;DHT22;7843;50.330;7.312;2023-05-31T01:20:32;12.90;95.40
15483;DHT22;7843;50.330;7.312;2023-05-31T01:26:37;12.70;94.70
15483;DHT22;7843;50.330;7.312;2023-05-31T01:29:07;12.60;95.20
15483;DHT22;7843;50.330;7.312;2023-05-31T01:31:36;12.60;95.90
15483;DHT22;7843;50.330;7.312;2023-05-31T01:34:03;12.60;96.10
15483;DHT22;7843;50.330;7.312;2023-05-31T01:36:31;12.60;95.80
15483;DHT22;7843;50.330;7.312;2023-05-31T01:39:00;12.50;95.70
15483;DHT22;7843;50.330;7.312;2023-05-31T01:41:28;12.40;95.80
15483;DHT22;7843;50.330;7.312;2023-05-31T01:43:58;12.40;96.00
15483;DHT22;7843;50.330;7.312;2023-05-31T01:46:26;12.30;96.30
15483;DHT22;7843;50.330;7.312;2023-05-31T01:48:54;12.20;96.70
15483;DHT22;7843;50.330;7.312;2023-05-31T01:51:21;12.30;96.60
15483;DHT22;7843;50.330;7.312;2023-05-31T01:53:48;12.10;96.70
15483;DHT22;7843;50.330;7.312;2023-05-31T01:56:19;12.10;97.30
15483;DHT22;7843;50.330;7.312;2023-05-31T01:58:46;12.10;97.70
15483;DHT22;7843;50.330;7.312;2023-05-31T02:01:17;12.20;97.70
15483;DHT22;7843;50.330;7.312;2023-05-31T02:03:44;12.20;97.40
15483;DHT22;7843;50.330;7.312;2023-05-31T02:06:11;12.10;97.00
15483;DHT22;7843;50.330;7.312;2023-05-31T02:08:41;12.10;97.20
15483;DHT22;7843;50.330;7.312;2023-05-31T02:11:08;11.90;97.10
15483;DHT22;7843;50.330;7.312;2023-05-31T02:13:34;11.90;97.50
15483;DHT22;7843;50.330;7.312;2023-05-31T02:16:02;11.90;97.60
15483;DHT22;7843;50.330;7.312;2023-05-31T02:18:30;11.90;98.20
15483;DHT22;7843;50.330;7.312;2023-05-31T02:20:56;11.90;98.30
15483;DHT22;7843;50.330;7.312;2023-05-31T02:23:23;11.80;98.50
15483;DHT22;7843;50.330;7.312;2023-05-31T02:25:50;11.80;98.70
15483;DHT22;7843;50.330;7.312;2023-05-31T02:28:17;11.80;98.70
15483;DHT22;7843;50.330;7.312;2023-05-31T02:30:57;11.90;99.00
15483;DHT22;7843;50.330;7.312;2023-05-31T02:33:25;12.00;99.10
15483;DHT22;7843;50.330;7.312;2023-05-31T02:35:52;12.00;99.00
15483;DHT22;7843;50.330;7.312;2023-05-31T02:38:20;12.10;98.80
15483;DHT22;7843;50.330;7.312;2023-05-31T02:40:47;12.20;98.50
15483;DHT22;7843;50.330;7.312;2023-05-31T02:43:14;12.10;97.80
15483;DHT22;7843;50.330;7.312;2023-05-31T02:45:40;11.90;97.30
15483;DHT22;7843;50.330;7.312;2023-05-31T02:48:07;11.70;97.90
15483;DHT22;7843;50.330;7.312;2023-05-31T02:50:34;11.60;98.30
15483;DHT22;7843;50.330;7.312;2023-05-31T02:53:01;11.60;98.80
15483;DHT22;7843;50.330;7.312;2023-05-31T02:55:31;11.60;99.00
15483;DHT22;7843;50.330;7.312;2023-05-31T02:57:58;11.60;99.30
15483;DHT22;7843;50.330;7.312;2023-05-31T03:00:25;11.60;99.10
15483;DHT22;7843;50.330;7.312;2023-05-31T03:02:52;11.50;99.20
15483;DHT22;7843;50.330;7.312;2023-05-31T03:05:19;11.40;98.90
15483;DHT22;7843;50.330;7.312;2023-05-31T03:07:47;11.30;99.30
15483;DHT22;7843;50.330;7.312;2023-05-31T03:10:14;11.30;99.40
15483;DHT22;7843;50.330;7.312;2023-05-31T03:12:41;11.30;99.70
15483;DHT22;7843;50.330;7.312;2023-05-31T03:15:08;11.40;99.90
15483;DHT22;7843;50.330;7.312;2023-05-31T03:17:35;11.40;99.90
15483;DHT22;7843;50.330;7.312;2023-05-31T03:20:05;11.50;99.90
15483;DHT22;7843;50.330;7.312;2023-05-31T03:22:35;11.70;99.90
15483;DHT22;7843;50.330;7.312;2023-05-31T03:25:03;11.80;99.90
15483;DHT22;7843;50.330;7.312;2023-05-31T03:27:30;11.80;99.90
15483;DHT22;7843;50.330;7.312;2023-05-31T03:29:58;11.70;99.60
15483;DHT22;7843;50.330;7.312;2023-05-31T03:32:24;11.50;99.30
15483;DHT22;7843;50.330;7.312;2023-05-31T03:34:51;11.40;99.10
15483;DHT22;7843;50.330;7.312;2023-05-31T03:37:18;11.40;99.20
15483;DHT22;7843;50.330;7.312;2023-05-31T03:39:44;11.40;99.30
15483;DHT22;7843;50.330;7.312;2023-05-31T03:42:11;11.30;99.70
15483;DHT22;7843;50.330;7.312;2023-05-31T03:44:38;11.20;99.90
15483;DHT22;7843;50.330;7.312;2023-05-31T03:47:06;11.20;99.90
15483;DHT22;7843;50.330;7.312;2023-05-31T03:49:32;11.20;99.90
15483;DHT22;7843;50.330;7.312;2023-05-31T03:51:59;11.20;99.90
15483;DHT22;7843;50.330;7.312;2023-05-31T03:54:26;11.20;99.90
15483;DHT22;7843;50.330;7.312;2023-05-31T03:56:53;11.20;99.90
15483;DHT22;7843;50.330;7.312;2023-05-31T03:59:19;11.20;99.90
15483;DHT22;7843;50.330;7.312;2023-05-31T04:01:46;11.30;99.90
15483;DHT22;7843;50.330;7.312;2023-05-31T04:04:13;11.30;99.90
15483;DHT22;7843;50.330;7.312;2023-05-31T04:06:39;11.40;99.90
15483;DHT22;7843;50.330;7.312;2023-05-31T04:09:06;11.40;99.90
15483;DHT22;7843;50.330;7.312;2023-05-31T04:11:33;11.40;99.90
15483;DHT22;7843;50.330;7.312;2023-05-31T04:14:00;11.50;99.90
15483;DHT22;7843;50.330;7.312;2023-05-31T04:16:27;11.50;99.90
15483;DHT22;7843;50.330;7.312;2023-05-31T04:18:53;11.60;99.90
15483;DHT22;7843;50.330;7.312;2023-05-31T04:21:20;11.70;99.90
15483;DHT22;7843;50.330;7.312;2023-05-31T04:23:47;11.80;99.90
15483;DHT22;7843;50.330;7.312;2023-05-31T04:26:14;11.90;99.90
15483;DHT22;7843;50.330;7.312;2023-05-31T04:28:45;12.00;99.80
15483;DHT22;7843;50.330;7.312;2023-05-31T04:31:18;12.00;99.60
15483;DHT22;7843;50.330;7.312;2023-05-31T04:33:45;12.00;99.70
15483;DHT22;7843;50.330;7.312;2023-05-31T04:36:12;12.10;99.80
15483;DHT22;7843;50.330;7.312;2023-05-31T04:38:39;12.10;99.80
15483;DHT22;7843;50.330;7.312;2023-05-31T04:41:05;12.10;99.70
15483;DHT22;7843;50.330;7.312;2023-05-31T04:43:32;12.20;99.90
15483;DHT22;7843;50.330;7.312;2023-05-31T04:45:59;12.30;99.90
15483;DHT22;7843;50.330;7.312;2023-05-31T04:48:30;12.40;99.90
15483;DHT22;7843;50.330;7.312;2023-05-31T04:50:57;12.60;99.40
15483;DHT22;7843;50.330;7.312;2023-05-31T04:53:25;12.80;99.20
15483;DHT22;7843;50.330;7.312;2023-05-31T04:55:52;12.90;98.60
15483;DHT22;7843;50.330;7.312;2023-05-31T04:58:18;13.00;98.50
15483;DHT22;7843;50.330;7.312;2023-05-31T05:00:46;13.10;98.80
15483;DHT22;7843;50.330;7.312;2023-05-31T05:03:13;13.20;99.00
15483;DHT22;7843;50.330;7.312;2023-05-31T05:05:40;13.20;98.90
15483;DHT22;7843;50.330;7.312;2023-05-31T05:08:07;13.30;98.80
15483;DHT22;7843;50.330;7.312;2023-05-31T05:10:34;13.40;98.80
15483;DHT22;7843;50.330;7.312;2023-05-31T05:13:00;13.50;98.70
15483;DHT22;7843;50.330;7.312;2023-05-31T05:15:27;13.60;98.40
15483;DHT22;7843;50.330;7.312;2023-05-31T05:17:54;13.60;98.40
15483;DHT22;7843;50.330;7.312;2023-05-31T05:20:20;13.70;97.80
15483;DHT22;7843;50.330;7.312;2023-05-31T05:22:51;13.70;97.10
15483;DHT22;7843;50.330;7.312;2023-05-31T05:25:19;13.70;97.30
15483;DHT22;7843;50.330;7.312;2023-05-31T05:27:47;13.80;97.10
15483;DHT22;7843;50.330;7.312;2023-05-31T05:30:14;13.90;97.10
15483;DHT22;7843;50.330;7.312;2023-05-31T05:32:42;14.00;97.00
15483;DHT22;7843;50.330;7.312;2023-05-31T05:35:09;14.10;96.40
15483;DHT22;7843;50.330;7.312;2023-05-31T05:37:35;14.10;96.70
15483;DHT22;7843;50.330;7.312;2023-05-31T05:40:02;14.30;96.10
15483;DHT22;7843;50.330;7.312;2023-05-31T05:42:31;14.40;94.70
15483;DHT22;7843;50.330;7.312;2023-05-31T05:44:58;14.60;95.60
15483;DHT22;7843;50.330;7.312;2023-05-31T05:47:25;14.70;96.20
15483;DHT22;7843;50.330;7.312;2023-05-31T05:49:51;14.70;94.90
15483;DHT22;7843;50.330;7.312;2023-05-31T05:52:19;14.90;94.80
15483;DHT22;7843;50.330;7.312;2023-05-31T05:54:46;15.10;94.80
15483;DHT22;7843;50.330;7.312;2023-05-31T05:57:13;15.20;93.50
15483;DHT22;7843;50.330;7.312;2023-05-31T05:59:41;15.40;92.00
15483;DHT22;7843;50.330;7.312;2023-05-31T06:02:08;15.50;92.00
15483;DHT22;7843;50.330;7.312;2023-05-31T06:04:35;15.60;91.80
15483;DHT22;7843;50.330;7.312;2023-05-31T06:07:02;15.60;90.70
15483;DHT22;7843;50.330;7.312;2023-05-31T06:09:28;15.70;91.10
15483;DHT22;7843;50.330;7.312;2023-05-31T06:11:55;15.80;90.60
15483;DHT22;7843;50.330;7.312;2023-05-31T06:14:22;15.90;90.30
15483;DHT22;7843;50.330;7.312;2023-05-31T06:16:48;15.90;90.20
15483;DHT22;7843;50.330;7.312;2023-05-31T06:19:15;16.00;89.30
15483;DHT22;7843;50.330;7.312;2023-05-31T06:21:42;16.10;88.40
15483;DHT22;7843;50.330;7.312;2023-05-31T06:24:08;16.20;88.20
15483;DHT22;7843;50.330;7.312;2023-05-31T06:26:35;16.20;88.30
15483;DHT22;7843;50.330;7.312;2023-05-31T06:29:02;16.30;88.20
15483;DHT22;7843;50.330;7.312;2023-05-31T06:31:29;16.40;88.70
15483;DHT22;7843;50.330;7.312;2023-05-31T06:33:57;16.50;87.20
15483;DHT22;7843;50.330;7.312;2023-05-31T06:36:24;16.60;87.00
15483;DHT22;7843;50.330;7.312;2023-05-31T06:38:51;16.70;87.70
15483;DHT22;7843;50.330;7.312;2023-05-31T06:41:17;16.80;87.10
15483;DHT22;7843;50.330;7.312;2023-05-31T06:43:44;16.80;87.00
15483;DHT22;7843;50.330;7.312;2023-05-31T06:46:11;16.90;88.00
15483;DHT22;7843;50.330;7.312;2023-05-31T06:48:39;17.00;87.00
15483;DHT22;7843;50.330;7.312;2023-05-31T06:51:06;17.10;86.60
15483;DHT22;7843;50.330;7.312;2023-05-31T06:53:32;17.10;86.30
15483;DHT22;7843;50.330;7.312;2023-05-31T06:55:59;17.20;86.10
15483;DHT22;7843;50.330;7.312;2023-05-31T06:58:29;17.20;85.90
15483;DHT22;7843;50.330;7.312;2023-05-31T07:00:57;17.30;85.90
15483;DHT22;7843;50.330;7.312;2023-05-31T07:03:24;17.40;85.30
15483;DHT22;7843;50.330;7.312;2023-05-31T07:05:51;17.50;84.30
15483;DHT22;7843;50.330;7.312;2023-05-31T07:08:18;17.50;84.50
15483;DHT22;7843;50.330;7.312;2023-05-31T07:10:44;17.60;84.90
15483;DHT22;7843;50.330;7.312;2023-05-31T07:13:11;17.70;83.90
15483;DHT22;7843;50.330;7.312;2023-05-31T07:15:38;17.80;83.60
15483;DHT22;7843;50.330;7.312;2023-05-31T07:18:05;17.90;83.80
15483;DHT22;7843;50.330;7.312;2023-05-31T07:20:32;18.00;83.80
15483;DHT22;7843;50.330;7.312;2023-05-31T07:22:58;18.10;82.10
15483;DHT22;7843;50.330;7.312;2023-05-31T07:25:25;18.20;82.60
15483;DHT22;7843;50.330;7.312;2023-05-31T07:27:52;18.30;81.90
15483;DHT22;7843;50.330;7.312;2023-05-31T07:30:19;18.40;81.00
15483;DHT22;7843;50.330;7.312;2023-05-31T07:32:46;18.50;80.00
15483;DHT22;7843;50.330;7.312;2023-05-31T07:35:13;18.60;80.50
15483;DHT22;7843;50.330;7.312;2023-05-31T07:37:40;18.70;80.30
15483;DHT22;7843;50.330;7.312;2023-05-31T07:40:07;18.80;80.60
15483;DHT22;7843;50.330;7.312;2023-05-31T07:42:34;19.00;80.50
15483;DHT22;7843;50.330;7.312;2023-05-31T07:45:01;19.10;80.80
15483;DHT22;7843;50.330;7.312;2023-05-31T07:47:28;19.10;80.30
15483;DHT22;7843;50.330;7.312;2023-05-31T07:49:55;19.20;80.20
15483;DHT22;7843;50.330;7.312;2023-05-31T07:52:22;19.30;80.00
15483;DHT22;7843;50.330;7.312;2023-05-31T07:54:49;19.40;78.80
15483;DHT22;7843;50.330;7.312;2023-05-31T07:57:16;19.40;78.90
15483;DHT22;7843;50.330;7.312;2023-05-31T07:59:44;19.50;78.10
15483;DHT22;7843;50.330;7.312;2023-05-31T08:02:10;19.60;78.30
15483;DHT22;7843;50.330;7.312;2023-05-31T08:04:37;19.70;78.10
15483;DHT22;7843;50.330;7.312;2023-05-31T08:07:04;19.70;78.20
15483;DHT22;7843;50.330;7.312;2023-05-31T08:09:31;19.90;77.60
15483;DHT22;7843;50.330;7.312;2023-05-31T08:11:58;19.90;77.00
15483;DHT22;7843;50.330;7.312;2023-05-31T08:14:25;20.00;76.10
15483;DHT22;7843;50.330;7.312;2023-05-31T08:16:51;20.00;76.30
15483;DHT22;7843;50.330;7.312;2023-05-31T08:19:18;20.10;75.40
15483;DHT22;7843;50.330;7.312;2023-05-31T08:21:45;20.20;75.60
15483;DHT22;7843;50.330;7.312;2023-05-31T08:24:13;20.30;74.70
15483;DHT22;7843;50.330;7.312;2023-05-31T08:26:39;20.40;75.50
15483;DHT22;7843;50.330;7.312;2023-05-31T08:29:06;20.50;74.20
15483;DHT22;7843;50.330;7.312;2023-05-31T08:31:34;20.50;73.90
15483;DHT22;7843;50.330;7.312;2023-05-31T08:34:01;20.60;74.30
15483;DHT22;7843;50.330;7.312;2023-05-31T08:36:28;20.70;73.50
15483;DHT22;7843;50.330;7.312;2023-05-31T08:38:55;20.70;73.60
15483;DHT22;7843;50.330;7.312;2023-05-31T08:41:22;20.80;73.40
15483;DHT22;7843;50.330;7.312;2023-05-31T08:43:49;20.90;72.80
15483;DHT22;7843;50.330;7.312;2023-05-31T08:46:16;21.00;71.80
15483;DHT22;7843;50.330;7.312;2023-05-31T08:49:08;21.10;72.30
15483;DHT22;7843;50.330;7.312;2023-05-31T08:51:37;21.10;71.00
15483;DHT22;7843;50.330;7.312;2023-05-31T08:54:06;21.30;72.10
15483;DHT22;7843;50.330;7.312;2023-05-31T08:56:33;21.40;71.80
15483;DHT22;7843;50.330;7.312;2023-05-31T08:59:01;21.40;69.80
15483;DHT22;7843;50.330;7.312;2023-05-31T09:01:29;21.40;70.30
15483;DHT22;7843;50.330;7.312;2023-05-31T09:03:57;21.50;68.00
15483;DHT22;7843;50.330;7.312;2023-05-31T09:06:23;21.60;69.00
15483;DHT22;7843;50.330;7.312;2023-05-31T09:08:50;21.80;68.90
15483;DHT22;7843;50.330;7.312;2023-05-31T09:11:17;21.80;67.30
15483;DHT22;7843;50.330;7.312;2023-05-31T09:13:44;21.90;69.40
15483;DHT22;7843;50.330;7.312;2023-05-31T09:16:11;22.00;68.80
15483;DHT22;7843;50.330;7.312;2023-05-31T09:18:38;22.10;67.00
15483;DHT22;7843;50.330;7.312;2023-05-31T09:21:13;22.20;65.00
15483;DHT22;7843;50.330;7.312;2023-05-31T09:23:53;22.20;64.00
15483;DHT22;7843;50.330;7.312;2023-05-31T09:26:20;22.20;63.80
15483;DHT22;7843;50.330;7.312;2023-05-31T09:28:49;22.30;62.60
15483;DHT22;7843;50.330;7.312;2023-05-31T09:31:16;22.40;64.30
15483;DHT22;7843;50.330;7.312;2023-05-31T09:33:48;22.50;62.30
15483;DHT22;7843;50.330;7.312;2023-05-31T09:36:24;22.60;61.70
15483;DHT22;7843;50.330;7.312;2023-05-31T09:39:01;22.60;60.70
15483;DHT22;7843;50.330;7.312;2023-05-31T09:41:34;22.70;60.70
15483;DHT22;7843;50.330;7.312;2023-05-31T09:44:01;22.70;60.30
15483;DHT22;7843;50.330;7.312;2023-05-31T09:46:28;22.80;59.60
15483;DHT22;7843;50.330;7.312;2023-05-31T09:49:03;22.90;59.30
15483;DHT22;7843;50.330;7.312;2023-05-31T09:51:30;23.00;59.20
15483;DHT22;7843;50.330;7.312;2023-05-31T09:54:01;23.10;58.90
15483;DHT22;7843;50.330;7.312;2023-05-31T09:56:37;23.20;60.50
15483;DHT22;7843;50.330;7.312;2023-05-31T09:59:05;23.30;60.30
15483;DHT22;7843;50.330;7.312;2023-05-31T10:01:33;23.40;59.70
15483;DHT22;7843;50.330;7.312;2023-05-31T10:04:02;23.40;58.90
15483;DHT22;7843;50.330;7.312;2023-05-31T10:06:30;23.40;59.10
15483;DHT22;7843;50.330;7.312;2023-05-31T10:09:05;23.50;58.70
15483;DHT22;7843;50.330;7.312;2023-05-31T10:11:36;23.60;60.70
15483;DHT22;7843;50.330;7.312;2023-05-31T10:14:09;23.60;58.00
15483;DHT22;7843;50.330;7.312;2023-05-31T10:16:45;23.80;59.00
15483;DHT22;7843;50.330;7.312;2023-05-31T10:19:20;23.90;59.80
15483;DHT22;7843;50.330;7.312;2023-05-31T10:21:50;24.00;59.30
15483;DHT22;7843;50.330;7.312;2023-05-31T10:24:24;24.10;58.40
15483;DHT22;7843;50.330;7.312;2023-05-31T10:27:10;24.20;58.00
15483;DHT22;7843;50.330;7.312;2023-05-31T10:29:48;24.20;56.90
15483;DHT22;7843;50.330;7.312;2023-05-31T10:32:26;24.30;56.60
15483;DHT22;7843;50.330;7.312;2023-05-31T10:34:55;24.30;57.10
15483;DHT22;7843;50.330;7.312;2023-05-31T10:37:22;24.30;57.10
15483;DHT22;7843;50.330;7.312;2023-05-31T10:42:47;24.70;56.50
15483;DHT22;7843;50.330;7.312;2023-05-31T10:45:33;24.90;55.60
15483;DHT22;7843;50.330;7.312;2023-05-31T10:51:01;25.00;55.60
15483;DHT22;7843;50.330;7.312;2023-05-31T10:53:29;25.20;54.50
15483;DHT22;7843;50.330;7.312;2023-05-31T10:56:04;25.20;55.70
15483;DHT22;7843;50.330;7.312;2023-05-31T10:58:36;25.40;55.10
15483;DHT22;7843;50.330;7.312;2023-05-31T11:01:11;25.60;53.60
15483;DHT22;7843;50.330;7.312;2023-05-31T11:03:49;25.60;55.10
15483;DHT22;7843;50.330;7.312;2023-05-31T11:06:22;25.70;53.10
15483;DHT22;7843;50.330;7.312;2023-05-31T11:14:09;26.00;53.00
15483;DHT22;7843;50.330;7.312;2023-05-31T11:19:32;26.30;53.60
15483;DHT22;7843;50.330;7.312;2023-05-31T11:22:15;26.40;52.90
15483;DHT22;7843;50.330;7.312;2023-05-31T11:24:55;26.30;53.90
15483;DHT22;7843;50.330;7.312;2023-05-31T11:27:36;26.50;52.10
15483;DHT22;7843;50.330;7.312;2023-05-31T11:30:09;26.80;53.90
15483;DHT22;7843;50.330;7.312;2023-05-31T11:35:07;27.30;51.40
15483;DHT22;7843;50.330;7.312;2023-05-31T11:37:37;27.30;51.50
15483;DHT22;7843;50.330;7.312;2023-05-31T11:40:05;27.60;51.70
15483;DHT22;7843;50.330;7.312;2023-05-31T11:42:37;27.80;51.40
15483;DHT22;7843;50.330;7.312;2023-05-31T11:45:24;27.80;50.90
15483;DHT22;7843;50.330;7.312;2023-05-31T11:48:14;28.20;50.70
15483;DHT22;7843;50.330;7.312;2023-05-31T11:50:44;28.60;51.00
15483;DHT22;7843;50.330;7.312;2023-05-31T11:53:11;28.80;50.10
15483;DHT22;7843;50.330;7.312;2023-05-31T11:55:38;29.00;49.50
15483;DHT22;7843;50.330;7.312;2023-05-31T11:58:05;29.40;50.50
15483;DHT22;7843;50.330;7.312;2023-05-31T12:00:33;29.60;49.60
15483;DHT22;7843;50.330;7.312;2023-05-31T12:03:01;29.80;48.60
15483;DHT22;7843;50.330;7.312;2023-05-31T12:05:32;29.90;48.10
15483;DHT22;7843;50.330;7.312;2023-05-31T12:07:59;30.00;47.40
15483;DHT22;7843;50.330;7.312;2023-05-31T12:10:27;30.10;47.10
15483;DHT22;7843;50.330;7.312;2023-05-31T12:12:54;30.10;47.30
15483;DHT22;7843;50.330;7.312;2023-05-31T12:15:23;30.20;48.20
15483;DHT22;7843;50.330;7.312;2023-05-31T12:17:49;30.60;47.40
15483;DHT22;7843;50.330;7.312;2023-05-31T12:20:16;30.70;47.40
15483;DHT22;7843;50.330;7.312;2023-05-31T12:22:43;30.90;46.60
15483;DHT22;7843;50.330;7.312;2023-05-31T12:25:09;31.00;46.90
15483;DHT22;7843;50.330;7.312;2023-05-31T12:27:36;31.10;45.40
15483;DHT22;7843;50.330;7.312;2023-05-31T12:30:16;31.10;47.70
15483;DHT22;7843;50.330;7.312;2023-05-31T12:32:45;31.30;46.70
15483;DHT22;7843;50.330;7.312;2023-05-31T12:35:11;31.50;45.70
15483;DHT22;7843;50.330;7.312;2023-05-31T12:37:39;31.80;45.60
15483;DHT22;7843;50.330;7.312;2023-05-31T12:40:12;32.10;46.20
15483;DHT22;7843;50.330;7.312;2023-05-31T12:42:40;32.30;45.70
15483;DHT22;7843;50.330;7.312;2023-05-31T12:45:08;32.50;45.20
15483;DHT22;7843;50.330;7.312;2023-05-31T12:47:36;32.50;44.90
15483;DHT22;7843;50.330;7.312;2023-05-31T12:50:04;32.70;45.00
15483;DHT22;7843;50.330;7.312;2023-05-31T12:52:33;32.60;44.40
15483;DHT22;7843;50.330;7.312;2023-05-31T12:55:01;32.80;44.80
15483;DHT22;7843;50.330;7.312;2023-05-31T12:57:28;33.00;45.30
15483;DHT22;7843;50.330;7.312;2023-05-31T13:00:04;33.20;45.50
15483;DHT22;7843;50.330;7.312;2023-05-31T13:02:34;33.20;43.60
15483;DHT22;7843;50.330;7.312;2023-05-31T13:07:28;33.20;45.10
15483;DHT22;7843;50.330;7.312;2023-05-31T13:09:55;33.10;44.70
15483;DHT22;7843;50.330;7.312;2023-05-31T13:12:22;33.10;43.80
15483;DHT22;7843;50.330;7.312;2023-05-31T13:14:48;33.30;44.00
15483;DHT22;7843;50.330;7.312;2023-05-31T13:17:18;33.30;45.30
15483;DHT22;7843;50.330;7.312;2023-05-31T13:19:45;33.30;44.30
15483;DHT22;7843;50.330;7.312;2023-05-31T13:22:15;33.20;45.10
15483;DHT22;7843;50.330;7.312;2023-05-31T13:24:42;33.30;44.10
15483;DHT22;7843;50.330;7.312;2023-05-31T13:27:08;33.10;44.20
15483;DHT22;7843;50.330;7.312;2023-05-31T13:29:35;33.30;44.50
15483;DHT22;7843;50.330;7.312;2023-05-31T13:32:02;33.40;43.90
15483;DHT22;7843;50.330;7.312;2023-05-31T13:34:29;33.50;43.50
15483;DHT22;7843;50.330;7.312;2023-05-31T13:36:55;33.50;44.10
15483;DHT22;7843;50.330;7.312;2023-05-31T13:39:23;33.40;44.10
15483;DHT22;7843;50.330;7.312;2023-05-31T13:41:50;33.40;44.20
15483;DHT22;7843;50.330;7.312;2023-05-31T13:44:16;33.40;45.10
15483;DHT22;7843;50.330;7.312;2023-05-31T13:46:43;33.40;44.80
15483;DHT22;7843;50.330;7.312;2023-05-31T13:49:10;33.40;43.60
15483;DHT22;7843;50.330;7.312;2023-05-31T13:51:39;33.40;44.30
15483;DHT22;7843;50.330;7.312;2023-05-31T13:54:06;33.60;44.20
15483;DHT22;7843;50.330;7.312;2023-05-31T13:56:33;33.70;43.80
15483;DHT22;7843;50.330;7.312;2023-05-31T13:59:00;33.80;43.70
15483;DHT22;7843;50.330;7.312;2023-05-31T14:01:26;33.70;43.50
15483;DHT22;7843;50.330;7.312;2023-05-31T14:03:53;33.70;44.10
15483;DHT22;7843;50.330;7.312;2023-05-31T14:06:20;33.60;44.40
15483;DHT22;7843;50.330;7.312;2023-05-31T14:08:48;33.70;43.00
15483;DHT22;7843;50.330;7.312;2023-05-31T14:11:14;33.60;45.00
15483;DHT22;7843;50.330;7.312;2023-05-31T14:13:42;33.50;43.60
15483;DHT22;7843;50.330;7.312;2023-05-31T14:16:08;33.30;43.40
15483;DHT22;7843;50.330;7.312;2023-05-31T14:18:35;33.30;43.50
15483;DHT22;7843;50.330;7.312;2023-05-31T14:21:02;33.10;45.00
15483;DHT22;7843;50.330;7.312;2023-05-31T14:23:29;32.70;44.90
15483;DHT22;7843;50.330;7.312;2023-05-31T14:25:56;32.80;43.90
15483;DHT22;7843;50.330;7.312;2023-05-31T14:28:22;32.50;45.10
15483;DHT22;7843;50.330;7.312;2023-05-31T14:30:49;32.50;45.80
15483;DHT22;7843;50.330;7.312;2023-05-31T14:33:16;32.50;45.50
15483;DHT22;7843;50.330;7.312;2023-05-31T14:35:42;32.50;45.60
15483;DHT22;7843;50.330;7.312;2023-05-31T14:38:09;32.60;45.20
15483;DHT22;7843;50.330;7.312;2023-05-31T14:40:36;32.60;46.80
15483;DHT22;7843;50.330;7.312;2023-05-31T14:43:03;32.60;45.80
15483;DHT22;7843;50.330;7.312;2023-05-31T14:45:29;32.40;46.10
15483;DHT22;7843;50.330;7.312;2023-05-31T14:47:56;32.30;45.50
15483;DHT22;7843;50.330;7.312;2023-05-31T14:50:25;32.10;45.70
15483;DHT22;7843;50.330;7.312;2023-05-31T14:52:53;32.20;45.90
15483;DHT22;7843;50.330;7.312;2023-05-31T14:55:19;32.10;46.70
15483;DHT22;7843;50.330;7.312;2023-05-31T14:57:46;32.00;47.20
15483;DHT22;7843;50.330;7.312;2023-05-31T15:00:13;31.90;46.70
15483;DHT22;7843;50.330;7.312;2023-05-31T15:02:40;31.70;46.20
15483;DHT22;7843;50.330;7.312;2023-05-31T15:05:08;31.60;46.20
15483;DHT22;7843;50.330;7.312;2023-05-31T15:07:36;31.50;46.30
15483;DHT22;7843;50.330;7.312;2023-05-31T15:10:03;31.30;48.00
15483;DHT22;7843;50.330;7.312;2023-05-31T15:12:31;31.20;46.10
15483;DHT22;7843;50.330;7.312;2023-05-31T15:14:57;31.00;47.60
15483;DHT22;7843;50.330;7.312;2023-05-31T15:17:24;31.00;47.60
15483;DHT22;7843;50.330;7.312;2023-05-31T15:19:51;30.90;48.00
15483;DHT22;7843;50.330;7.312;2023-05-31T15:22:18;30.80;47.80
15483;DHT22;7843;50.330;7.312;2023-05-31T15:24:45;30.70;48.80
15483;DHT22;7843;50.330;7.312;2023-05-31T15:27:12;30.60;47.90
15483;DHT22;7843;50.330;7.312;2023-05-31T15:29:39;30.50;47.40
15483;DHT22;7843;50.330;7.312;2023-05-31T15:32:06;30.50;48.00
15483;DHT22;7843;50.330;7.312;2023-05-31T15:34:34;30.50;48.70
15483;DHT22;7843;50.330;7.312;2023-05-31T15:37:00;30.40;48.60
15483;DHT22;7843;50.330;7.312;2023-05-31T15:39:27;30.50;49.50
15483;DHT22;7843;50.330;7.312;2023-05-31T15:41:54;30.60;48.70
15483;DHT22;7843;50.330;7.312;2023-05-31T15:44:21;30.60;48.10
15483;DHT22;7843;50.330;7.312;2023-05-31T15:46:47;30.50;49.10
15483;DHT22;7843;50.330;7.312;2023-05-31T15:49:14;30.20;51.10
15483;DHT22;7843;50.330;7.312;2023-05-31T15:51:41;30.20;49.80
15483;DHT22;7843;50.330;7.312;2023-05-31T15:54:08;30.20;49.10
15483;DHT22;7843;50.330;7.312;2023-05-31T15:56:34;30.30;49.40
15483;DHT22;7843;50.330;7.312;2023-05-31T15:59:01;30.10;50.70
15483;DHT22;7843;50.330;7.312;2023-05-31T16:01:29;30.20;50.00
15483;DHT22;7843;50.330;7.312;2023-05-31T16:03:56;30.20;50.10
15483;DHT22;7843;50.330;7.312;2023-05-31T16:06:22;30.30;49.80
15483;DHT22;7843;50.330;7.312;2023-05-31T16:08:49;30.10;49.20
15483;DHT22;7843;50.330;7.312;2023-05-31T16:11:16;29.90;49.70
15483;DHT22;7843;50.330;7.312;2023-05-31T16:13:43;29.70;49.80
15483;DHT22;7843;50.330;7.312;2023-05-31T16:16:09;29.40;49.70